Weather at Charles B. Wheeler Downtown Airport

Public forecast

Using degrees Fahrenheit for public forecast. Weather courtesy of forecast.io.

Current aviation weather report (METAR) for Charles B. Wheeler Downtown Airport

Retrieved 2020/09/24 00:54 UTC (30 minutes ago):

KMKC 240054Z 19003KT 10SM SCT050 22/16 A2996 RMK AO2 SLP138 T02220156

Aviation forecast (TAF) for Charles B. Wheeler Downtown Airport

Retrieved 2020-09-24 00:22 UTC (1 hour ago):

TAF KMKC 232320Z 2400/2424 19005KT P6SM BKN050 FM241200 17005KT P6SM FEW250